Time;durP1;ratioP1;P1;durP2;ratioP2;P2;SDS_P1;SDS_P2;PMS_P1;PMS_P2;Temp;Humidity;BMP_temperature;BMP_pressure;BME280_temperature;BME280_humidity;BME280_pressure;Samples;Min_cycle;Max_cycle;Signal;HPM_P1;HPM_P2
2021/03/02 00:01:00;;;;;;;;;41.33;35.33;;;;;3.37;71.02;102701.22;5080262;28;11503;-71
2021/03/02 00:03:56;;;;;;;;;47.33;36.67;;;;;3.46;70.87;102708.06;5083550;28;11468;-71
2021/03/02 00:06:24;;;;;;;;;43.00;39.00;;;;;3.37;70.95;102704.78;5082361;28;11472;-71
2021/03/02 00:09:22;;;;;;;;;42.33;42.00;;;;;3.35;70.55;102696.00;5083280;28;11514;-72
2021/03/02 00:11:52;;;;;;;;;42.33;41.33;;;;;3.46;70.81;102689.72;5084225;28;11650;-72
2021/03/02 00:14:20;;;;;;;;;46.67;43.67;;;;;3.43;71.06;102681.13;5062886;28;11589;-71
2021/03/02 00:17:31;;;;;;;;;47.67;44.67;;;;;3.41;70.71;102688.75;5063743;28;8958;-71
2021/03/02 00:20:29;;;;;;;;;41.00;39.33;;;;;3.49;70.63;102692.00;5082262;28;8940;-70
2021/03/02 00:23:18;;;;;;;;;40.33;38.00;;;;;3.46;70.63;102691.63;5082533;28;11544;-71
2021/03/02 00:26:18;;;;;;;;;39.67;39.67;;;;;3.61;70.45;102690.13;5081909;28;11533;-72
2021/03/02 00:28:50;;;;;;;;;49.00;44.00;;;;;3.41;70.88;102686.84;5082078;28;11529;-71
2021/03/02 00:31:48;;;;;;;;;47.67;44.67;;;;;3.51;70.72;102684.38;5082025;28;9543;-70
2021/03/02 00:34:16;;;;;;;;;47.00;44.67;;;;;3.43;70.39;102676.50;5084503;28;8846;-71
2021/03/02 00:37:12;;;;;;;;;53.33;47.00;;;;;3.41;71.08;102677.81;5083482;28;8822;-71
2021/03/02 00:40:08;;;;;;;;;59.00;50.33;;;;;3.36;71.11;102664.84;5063535;28;8905;-71
2021/03/02 00:43:04;;;;;;;;;57.00;49.00;;;;;3.47;70.61;102661.31;5082752;28;8834;-72
2021/03/02 00:45:32;;;;;;;;;69.33;54.67;;;;;3.45;70.94;102665.31;5083147;28;8930;-72
2021/03/02 00:48:28;;;;;;;;;57.67;48.67;;;;;3.37;70.73;102658.28;5072710;28;8831;-71
2021/03/02 00:51:24;;;;;;;;;66.00;50.33;;;;;3.34;70.90;102659.59;5075200;28;11539;-71
2021/03/02 00:54:20;;;;;;;;;60.67;49.33;;;;;3.33;71.34;102657.09;5080288;28;8850;-71
2021/03/02 00:57:16;;;;;;;;;54.33;48.00;;;;;3.36;71.62;102653.88;5082787;28;8876;-71
2021/03/02 01:00:12;;;;;;;;;49.33;46.00;;;;;3.40;71.50;102652.38;5083336;28;8828;-71
2021/03/02 01:02:54;;;;;;;;;48.00;44.00;;;;;3.44;71.52;102652.72;5081940;28;9622;-72
2021/03/02 01:05:49;;;;;;;;;41.67;41.67;;;;;3.16;72.11;102654.22;5080829;28;8852;-71
2021/03/02 01:08:45;;;;;;;;;38.33;36.67;;;;;3.29;71.83;102648.53;5080927;28;11556;-71
2021/03/02 01:11:40;;;;;;;;;41.00;39.00;;;;;3.42;71.47;102643.91;5066840;28;11608;-71
2021/03/02 01:14:08;;;;;;;;;39.00;38.33;;;;;3.32;72.09;102636.28;5082332;28;11558;-72
2021/03/02 01:16:36;;;;;;;;;46.00;42.67;;;;;3.21;72.31;102635.19;5081880;28;11563;-72
2021/03/02 01:19:31;;;;;;;;;47.67;42.00;;;;;3.11;72.42;102634.94;5081608;28;11609;-72
2021/03/02 01:22:27;;;;;;;;;47.67;43.00;;;;;3.10;72.81;102638.75;5082721;28;11648;-72
2021/03/02 01:25:23;;;;;;;;;55.67;48.00;;;;;3.09;72.87;102634.34;5081608;28;11506;-71
2021/03/02 01:28:19;;;;;;;;;47.00;44.67;;;;;3.11;72.97;102632.19;5082438;28;8919;-71
2021/03/02 01:31:14;;;;;;;;;36.67;36.67;;;;;3.06;72.97;102627.41;5069039;28;8833;-72
2021/03/02 01:34:10;;;;;;;;;39.00;37.67;;;;;3.15;72.88;102636.16;5080720;28;11562;-72
2021/03/02 01:37:05;;;;;;;;;41.00;41.00;;;;;3.15;72.93;102632.59;5078159;28;11542;-72
2021/03/02 01:40:09;;;;;;;;;32.00;31.00;;;;;3.18;72.46;102618.44;5085661;28;11533;-72
2021/03/02 01:43:05;;;;;;;;;42.00;40.33;;;;;3.11;73.17;102617.69;5082797;28;8868;-72
2021/03/02 01:46:00;;;;;;;;;49.33;45.00;;;;;3.12;73.00;102612.00;5082686;28;8878;-72
2021/03/02 01:48:56;;;;;;;;;50.67;46.00;;;;;3.17;72.64;102614.88;5081620;28;8877;-72
2021/03/02 01:51:52;;;;;;;;;41.67;38.67;;;;;3.12;73.01;102613.88;5081378;28;8835;-72
2021/03/02 01:54:48;;;;;;;;;32.33;31.67;;;;;3.24;72.93;102612.84;5084170;28;8839;-72
2021/03/02 01:57:15;;;;;;;;;39.33;39.33;;;;;3.33;72.45;102616.91;5086618;28;9689;-72
2021/03/02 02:00:38;;;;;;;;;38.67;35.67;;;;;3.16;72.36;102607.72;5085977;28;11521;-72
2021/03/02 02:03:24;;;;;;;;;37.67;33.33;;;;;3.13;72.56;102610.91;5083740;28;11544;-72
2021/03/02 02:06:26;;;;;;;;;42.00;38.00;;;;;3.03;72.50;102613.41;5085739;28;11643;-72
2021/03/02 02:09:31;;;;;;;;;31.50;31.50;;;;;2.99;73.18;102609.44;5085636;28;11566;-72
2021/03/02 02:12:34;;;;;;;;;36.00;34.33;;;;;3.13;72.60;102610.91;5085203;28;11524;-72
2021/03/02 02:15:34;;;;;;;;;34.67;34.00;;;;;3.17;72.48;102605.81;5085979;28;11527;-72
2021/03/02 02:18:33;;;;;;;;;31.67;31.67;;;;;3.00;72.71;102606.50;5085718;28;11531;-72
2021/03/02 02:21:05;;;;;;;;;37.67;35.67;;;;;2.99;73.07;102603.97;5086368;28;11631;-72
2021/03/02 02:23:35;;;;;;;;;32.00;32.00;;;;;2.94;73.32;102610.16;5085415;28;12395;-72
2021/03/02 02:26:56;;;;;;;;;35.67;35.67;;;;;2.97;73.32;102606.94;5084814;28;8924;-72
2021/03/02 02:29:31;;;;;;;;;37.50;36.75;;;;;3.00;73.38;102611.97;5084024;28;11541;-72
2021/03/02 02:32:28;;;;;;;;;31.67;28.33;;;;;3.00;73.06;102611.97;5085748;28;11679;-72
2021/03/02 02:35:27;;;;;;;;;29.75;28.25;;;;;2.89;73.42;102620.94;5084579;28;11535;-72
2021/03/02 02:38:23;;;;;;;;;44.00;41.00;;;;;2.79;73.61;102615.22;5085698;28;11583;-71
2021/03/02 02:41:21;;;;;;;;;36.00;33.00;;;;;2.66;74.45;102612.66;5082260;28;8972;-72
2021/03/02 02:44:18;;;;;;;;;28.00;28.00;;;;;2.85;72.72;102603.38;5086378;28;11525;-72
2021/03/02 02:47:17;;;;;;;;;29.33;27.67;;;;;2.51;72.56;102593.94;5084633;28;11530;-72
2021/03/02 02:50:13;;;;;;;;;42.00;40.00;;;;;2.40;73.20;102594.75;5085879;28;11492;-72
2021/03/02 02:53:09;;;;;;;;;34.33;30.67;;;;;2.14;73.28;102588.53;5082307;28;8819;-72
2021/03/02 02:55:47;;;;;;;;;34.67;31.67;;;;;2.13;74.33;102586.03;5085731;28;8842;-72
2021/03/02 02:58:19;;;;;;;;;40.67;38.33;;;;;2.11;73.72;102591.72;5085543;28;9552;-72
2021/03/02 03:01:15;;;;;;;;;58.00;46.00;;;;;1.91;75.09;102582.91;5080484;28;8850;-71
2021/03/02 03:04:14;;;;;;;;;54.00;44.33;;;;;1.93;74.21;102584.38;5084248;28;8830;-72
2021/03/02 03:07:23;;;;;;;;;39.33;38.00;;;;;2.00;73.42;102588.94;5084881;28;8915;-72
2021/03/02 03:10:18;;;;;;;;;34.00;33.00;;;;;1.74;74.59;102596.31;5085519;28;8940;-72
2021/03/02 03:13:18;;;;;;;;;36.33;36.33;;;;;2.03;74.15;102594.75;5083721;28;8839;-72
2021/03/02 03:16:07;;;;;;;;;41.00;33.33;;;;;1.91;73.56;102599.28;5081227;28;8872;-72
2021/03/02 03:19:05;;;;;;;;;34.67;31.67;;;;;1.97;73.80;102600.28;5082659;28;8899;-72
2021/03/02 03:21:34;;;;;;;;;43.33;38.33;;;;;1.85;73.63;102598.31;5085068;28;8844;-73
2021/03/02 03:24:31;;;;;;;;;40.00;39.33;;;;;1.83;73.29;102586.78;5084006;28;8845;-73
2021/03/02 03:27:30;;;;;;;;;39.00;34.33;;;;;1.71;74.71;102580.41;5085937;28;8853;-72
2021/03/02 03:30:28;;;;;;;;;43.00;41.33;;;;;1.57;74.26;102578.88;5083983;28;8849;-72
2021/03/02 03:33:25;;;;;;;;;34.67;34.67;;;;;1.41;74.47;102579.47;5083886;28;8845;-72
2021/03/02 03:36:22;;;;;;;;;44.00;38.33;;;;;1.32;74.74;102574.28;5084044;28;8850;-72
2021/03/02 03:39:04;;;;;;;;;41.33;37.67;;;;;1.31;74.81;102578.06;5084765;28;8847;-72
2021/03/02 03:41:33;;;;;;;;;41.00;38.00;;;;;1.57;74.07;102587.06;5083794;28;8842;-73
2021/03/02 03:44:29;;;;;;;;;29.00;28.33;;;;;1.41;74.29;102576.72;5070347;28;8842;-72
2021/03/02 03:47:24;;;;;;;;;30.00;29.00;;;;;1.41;74.18;102576.72;5081424;28;8830;-71
2021/03/02 03:50:20;;;;;;;;;32.33;32.33;;;;;1.29;74.82;102568.44;5082520;28;8902;-72
2021/03/02 03:53:06;;;;;;;;;35.67;35.67;;;;;1.38;75.07;102576.13;5084227;28;8928;-72
2021/03/02 03:56:05;;;;;;;;;38.00;34.00;;;;;1.34;75.10;102571.34;5083646;28;8821;-72
2021/03/02 03:58:48;;;;;;;;;40.67;40.67;;;;;1.20;75.47;102570.59;5068617;28;8856;-72
2021/03/02 04:01:45;;;;;;;;;34.67;31.67;;;;;1.32;75.32;102577.00;5073197;28;8816;-72
2021/03/02 04:04:41;;;;;;;;;36.00;29.67;;;;;1.37;75.22;102585.34;5085565;28;9524;-72
2021/03/02 04:07:37;;;;;;;;;28.00;23.00;;;;;1.24;74.44;102585.47;5082694;28;8944;-72
2021/03/02 04:10:07;;;;;;;;;48.00;42.00;;;;;1.21;74.31;102580.44;5082380;28;8942;-72
2021/03/02 04:13:12;;;;;;;;;39.33;37.67;;;;;1.20;74.64;102570.59;5083609;28;8946;-71
2021/03/02 04:15:47;;;;;;;;;38.00;36.67;;;;;1.20;74.98;102581.50;5085084;28;9627;-72
2021/03/02 04:18:17;;;;;;;;;31.00;29.00;;;;;1.15;75.73;102567.72;5083863;28;8839;-72
2021/03/02 04:20:47;;;;;;;;;41.67;34.00;;;;;1.25;74.56;102573.50;5084235;28;8859;-72
2021/03/02 04:23:17;;;;;;;;;28.67;28.67;;;;;1.31;74.83;102585.41;5083632;28;8913;-72
2021/03/02 04:26:13;;;;;;;;;36.33;33.67;;;;;1.40;73.62;102578.63;5083720;28;8829;-72
2021/03/02 04:29:08;;;;;;;;;38.67;35.67;;;;;1.31;74.33;102591.72;5084631;28;8816;-73
2021/03/02 04:31:37;;;;;;;;;51.33;44.00;;;;;1.44;73.40;102584.44;5083422;28;8857;-73
2021/03/02 04:34:32;;;;;;;;;46.33;41.00;;;;;1.53;73.32;102588.56;5087227;28;8835;-73
2021/03/02 04:37:28;;;;;;;;;35.00;32.33;;;;;1.41;73.73;102593.09;5084173;28;8835;-72
2021/03/02 04:40:12;;;;;;;;;42.67;39.67;;;;;1.33;74.73;102586.84;5071448;28;8982;-72
2021/03/02 04:42:40;;;;;;;;;46.33;41.33;;;;;1.25;74.83;102589.03;5083361;28;8862;-73
2021/03/02 04:45:35;;;;;;;;;34.67;34.00;;;;;1.20;74.54;102581.50;5085796;28;8861;-72
2021/03/02 04:48:31;;;;;;;;;29.33;22.33;;;;;1.06;75.22;102585.38;5072103;28;8873;-73
2021/03/02 04:51:20;;;;;;;;;42.00;41.00;;;;;1.11;74.92;102577.41;5083757;28;8925;-73
2021/03/02 04:53:49;;;;;;;;;42.67;42.33;;;;;1.32;74.97;102582.47;5081587;28;8934;-72
2021/03/02 04:56:44;;;;;;;;;54.00;44.00;;;;;1.44;75.15;102587.19;5081598;28;8823;-71
2021/03/02 04:59:11;;;;;;;;;41.33;40.00;;;;;1.34;74.78;102587.69;5081947;28;8940;-72
2021/03/02 05:01:39;;;;;;;;;52.33;43.33;;;;;1.39;74.86;102594.16;5082166;28;8828;-72
2021/03/02 05:04:34;;;;;;;;;49.33;46.00;;;;;1.37;75.34;102590.78;5082383;28;8928;-71
2021/03/02 05:07:16;;;;;;;;;41.67;41.33;;;;;1.22;76.35;102582.13;5079107;28;8849;-73
2021/03/02 05:10:12;;;;;;;;;41.33;38.33;;;;;1.32;76.78;102579.75;5082155;28;8851;-72
2021/03/02 05:12:40;;;;;;;;;41.33;41.33;;;;;1.43;76.74;102582.78;5066653;28;8872;-73
2021/03/02 05:15:36;;;;;;;;;37.00;34.33;;;;;1.67;76.78;102581.91;5082016;28;8864;-72
2021/03/02 05:18:04;;;;;;;;;40.33;39.00;;;;;1.84;76.33;102576.69;5070832;28;8856;-71
2021/03/02 05:21:01;;;;;;;;;33.00;33.00;;;;;1.96;76.42;102588.53;5083228;28;8922;-72
2021/03/02 05:23:28;;;;;;;;;34.33;34.33;;;;;2.09;75.84;102582.94;5076705;28;8856;-72
2021/03/02 05:26:25;;;;;;;;;39.67;34.67;;;;;2.14;75.63;102574.88;5077631;28;8899;-72
2021/03/02 05:28:57;;;;;;;;;35.33;34.00;;;;;2.17;75.57;102577.16;5081758;28;8974;-72
2021/03/02 05:31:52;;;;;;;;;34.00;30.33;;;;;2.26;75.27;102579.59;5060347;28;8952;-72
2021/03/02 05:34:48;;;;;;;;;32.67;29.00;;;;;2.36;75.25;102580.69;5084917;28;9617;-76
2021/03/02 05:37:43;;;;;;;;;38.00;35.67;;;;;2.48;74.86;102580.75;5087248;28;8834;-75
2021/03/02 05:40:22;;;;;;;;;30.67;30.33;;;;;2.70;74.76;102581.94;5085302;28;8936;-76
2021/03/02 05:42:50;;;;;;;;;29.33;29.33;;;;;2.70;74.32;102584.66;5085580;28;8850;-76
2021/03/02 05:45:31;;;;;;;;;30.33;29.67;;;;;2.67;73.63;102582.38;5070391;28;8842;-75
2021/03/02 05:48:29;;;;;;;;;35.00;28.67;;;;;2.93;73.38;102575.69;5073005;28;11612;-74
2021/03/02 05:50:58;;;;;;;;;20.67;20.67;;;;;3.00;73.21;102581.91;5085915;28;9617;-75
2021/03/02 05:53:27;;;;;;;;;18.33;18.33;;;;;2.87;72.62;102584.81;5085089;28;11552;-73
2021/03/02 05:55:55;;;;;;;;;29.67;27.67;;;;;3.01;72.63;102585.47;5079388;28;11544;-73
2021/03/02 05:58:22;;;;;;;;;27.67;27.67;;;;;3.13;72.42;102580.84;5077015;28;8883;-73
2021/03/02 06:01:18;;;;;;;;;28.67;28.67;;;;;3.25;72.26;102583.59;5076040;28;11541;-74
2021/03/02 06:04:16;;;;;;;;;26.33;26.33;;;;;3.33;71.34;102583.25;5085077;28;11502;-73
2021/03/02 06:07:03;;;;;;;;;26.50;25.50;;;;;3.26;71.34;102566.94;5062239;28;11570;-72
2021/03/02 06:09:59;;;;;;;;;29.75;29.00;;;;;3.43;71.33;102572.56;5085223;28;11575;-73
2021/03/02 06:12:57;;;;;;;;;30.33;28.00;;;;;3.57;71.09;102568.50;5085201;28;11525;-73
2021/03/02 06:15:59;;;;;;;;;29.00;28.33;;;;;3.78;70.64;102563.50;5086149;28;11550;-74
2021/03/02 06:18:55;;;;;;;;;27.75;27.25;;;;;3.97;69.74;102554.06;5072581;28;11519;-73
2021/03/02 06:21:35;;;;;;;;;23.75;23.75;;;;;4.13;69.63;102550.56;5092378;28;12315;-72
2021/03/02 06:24:02;;;;;;;;;2.50;2.50;;;;;4.31;69.04;102549.59;5086957;28;11527;-78
2021/03/02 06:26:30;;;;;;;;;26.25;24.25;;;;;4.53;68.71;102552.47;5092789;28;11473;-75
2021/03/02 06:29:26;;;;;;;;;31.25;29.00;;;;;4.81;67.53;102542.56;5085818;28;11584;-76
2021/03/02 06:32:39;;;;;;;;;15.75;15.75;;;;;4.45;67.43;102548.22;5084012;28;11504;-77
2021/03/02 06:35:38;;;;;;;;;19.00;18.50;;;;;4.91;66.43;102540.84;5071291;28;12287;-77
2021/03/02 06:38:06;;;;;;;;;15.50;15.50;;;;;4.77;66.59;102539.50;5084074;28;11509;-76
2021/03/02 06:40:45;;;;;;;;;3.50;3.50;;;;;4.71;65.95;102537.72;5083131;28;11522;-77
2021/03/02 06:43:43;;;;;;;;;14.25;14.25;;;;;4.95;65.80;102530.19;5088095;28;11444;-77
2021/03/02 06:46:39;;;;;;;;;19.25;19.25;;;;;5.20;65.03;102527.84;5086475;28;11606;-77
2021/03/02 06:49:45;;;;;;;;;20.50;19.75;;;;;5.27;64.88;102525.78;5085953;28;12332;-77
2021/03/02 06:52:43;;;;;;;;;18.50;18.50;;;;;5.44;64.71;102528.50;5084531;28;11562;-77
2021/03/02 06:55:41;;;;;;;;;23.50;23.50;;;;;5.82;63.82;102522.16;5071141;28;11650;-77
2021/03/02 06:58:24;;;;;;;;;24.00;24.00;;;;;6.07;62.34;102523.63;5065717;28;11558;-76
2021/03/02 07:00:56;;;;;;;;;24.75;22.25;;;;;6.24;60.82;102515.31;5081506;28;11557;-76
2021/03/02 07:04:08;;;;;;;;;14.50;13.25;;;;;6.21;59.78;102508.44;5085889;28;11618;-75
2021/03/02 07:07:14;;;;;;;;;20.00;20.00;;;;;6.47;58.49;102509.53;5071998;28;11488;-76
2021/03/02 07:10:00;;;;;;;;;25.00;23.50;;;;;6.31;57.95;102503.03;5069013;28;11520;-76
2021/03/02 07:12:56;;;;;;;;;14.25;14.25;;;;;6.44;57.02;102495.44;5081786;28;11496;-76
2021/03/02 07:15:39;;;;;;;;;13.75;11.50;;;;;6.79;55.82;102495.81;5066007;28;11681;-77
2021/03/02 07:18:34;;;;;;;;;15.50;14.50;;;;;6.64;55.65;102493.75;5087529;28;11609;-76
2021/03/02 07:21:07;;;;;;;;;21.75;18.50;;;;;6.83;56.55;102496.97;5095007;28;11555;-76
2021/03/02 07:23:46;;;;;;;;;13.75;13.25;;;;;6.78;55.98;102488.66;5086044;28;11509;-76
2021/03/02 07:26:33;;;;;;;;;14.50;14.50;;;;;7.27;54.77;102493.97;5074439;28;11498;-77
2021/03/02 07:29:29;;;;;;;;;14.00;14.00;;;;;7.58;54.03;102500.50;5069651;28;12264;-77
2021/03/02 07:32:26;;;;;;;;;12.00;12.00;;;;;7.62;52.49;102498.88;5070221;28;11607;-77
2021/03/02 07:35:10;;;;;;;;;9.25;9.25;;;;;6.86;53.41;102485.41;5085224;28;11563;-78
2021/03/02 07:38:20;;;;;;;;;13.25;13.25;;;;;6.90;53.71;102493.97;5082767;28;11499;-77
2021/03/02 07:41:10;;;;;;;;;9.50;9.50;;;;;6.69;53.89;102470.97;5087136;28;11487;-76
2021/03/02 07:43:39;;;;;;;;;17.50;17.50;;;;;6.93;54.20;102482.44;5080796;28;11539;-76
2021/03/02 07:46:38;;;;;;;;;18.75;18.75;;;;;7.30;53.76;102478.88;5091087;28;11539;-76
2021/03/02 07:49:22;;;;;;;;;12.25;12.25;;;;;6.53;53.75;102467.25;5082109;28;11475;-76
2021/03/02 07:52:17;;;;;;;;;14.50;14.50;;;;;7.16;52.99;102465.56;5054991;28;11508;-77
2021/03/02 07:55:31;;;;;;;;;13.25;10.75;;;;;7.43;52.85;102473.69;5083901;28;12287;-76
2021/03/02 07:58:26;;;;;;;;;16.00;15.50;;;;;7.78;51.97;102469.50;5086098;28;11616;-75
2021/03/02 08:01:23;;;;;;;;;15.25;15.25;;;;;7.90;50.20;102461.84;5084024;28;11542;-77
2021/03/02 08:04:25;;;;;;;;;10.50;10.50;;;;;7.75;50.87;102459.03;5084097;28;11564;-76
2021/03/02 08:07:22;;;;;;;;;15.00;15.00;;;;;7.64;52.70;102463.63;5082603;28;11531;-75
2021/03/02 08:10:35;;;;;;;;;13.25;13.25;;;;;7.69;51.02;102460.91;5083589;28;11559;-76
2021/03/02 08:13:31;;;;;;;;;11.00;11.00;;;;;7.48;51.42;102459.16;5081682;28;11536;-76
2021/03/02 08:16:50;;;;;;;;;14.75;12.50;;;;;7.72;51.50;102454.03;5068730;28;11493;-77
2021/03/02 08:19:40;;;;;;;;;15.25;15.25;;;;;7.62;51.78;102451.25;5085100;28;11549;-76
2021/03/02 08:22:41;;;;;;;;;14.75;14.75;;;;;8.02;50.10;102453.31;5070293;28;11501;-75
2021/03/02 08:25:30;;;;;;;;;8.75;8.75;;;;;8.54;49.55;102449.59;5069011;28;11531;-76
2021/03/02 08:28:00;;;;;;;;;17.75;17.75;;;;;8.40;47.25;102449.31;5064952;28;11487;-76
2021/03/02 08:30:56;;;;;;;;;15.75;15.75;;;;;8.91;47.47;102435.53;5061148;28;11472;-76
2021/03/02 08:33:38;;;;;;;;;15.25;14.00;;;;;8.84;46.71;102440.50;5069365;28;11442;-77
2021/03/02 08:36:25;;;;;;;;;13.75;13.75;;;;;8.34;48.14;102434.66;5083148;28;11452;-77
2021/03/02 08:39:24;;;;;;;;;16.25;16.25;;;;;8.72;47.77;102435.25;5075082;28;12183;-77
2021/03/02 08:41:54;;;;;;;;;17.00;17.00;;;;;8.95;49.16;102433.03;5075575;28;11461;-75
2021/03/02 08:45:07;;;;;;;;;17.50;17.50;;;;;8.80;48.60;102414.56;5067945;28;11435;-75
2021/03/02 08:48:18;;;;;;;;;11.00;10.00;;;;;8.58;46.47;102420.38;5083174;28;11489;-76
2021/03/02 08:51:19;;;;;;;;;22.25;22.25;;;;;8.46;46.31;102420.66;5080326;28;11461;-74
2021/03/02 08:54:16;;;;;;;;;23.00;23.00;;;;;8.39;46.93;102414.56;5082994;28;11548;-77
2021/03/02 08:57:11;;;;;;;;;20.50;19.25;;;;;8.30;47.49;102407.91;5073789;28;11553;-76
2021/03/02 08:59:43;;;;;;;;;23.25;23.25;;;;;8.50;48.74;102409.88;5064836;28;11539;-76
2021/03/02 09:02:44;;;;;;;;;22.75;20.75;;;;;8.46;47.50;102414.31;5078488;28;11495;-77
2021/03/02 09:05:21;;;;;;;;;22.25;22.25;;;;;8.93;53.23;102410.44;5070539;28;11442;-77
2021/03/02 09:08:21;;;;;;;;;24.75;24.75;;;;;9.11;58.29;102404.31;5064327;28;11570;-77
2021/03/02 09:11:01;;;;;;;;;24.00;20.25;;;;;8.46;47.61;102389.50;5054593;28;11514;-78
2021/03/02 09:13:36;;;;;;;;;19.75;19.75;;;;;8.06;47.44;102393.81;5083861;28;11454;-78
2021/03/02 09:16:31;;;;;;;;;26.50;26.50;;;;;8.93;49.05;102382.84;5083028;28;11515;-77
2021/03/02 09:19:05;;;;;;;;;17.00;13.25;;;;;8.94;46.31;102387.25;5082871;28;11581;-77
2021/03/02 09:21:36;;;;;;;;;21.75;20.50;;;;;9.33;49.01;102385.47;5066519;28;11391;-77
2021/03/02 09:24:04;;;;;;;;;11.75;11.75;;;;;8.39;45.83;102383.41;5081208;28;11418;-77
2021/03/02 09:26:32;;;;;;;;;19.25;19.25;;;;;8.51;53.91;102365.50;5066689;28;11391;-76
2021/03/02 09:29:06;;;;;;;;;23.00;23.00;;;;;8.77;48.44;102360.78;5083059;28;11497;-78
2021/03/02 09:31:35;;;;;;;;;22.25;21.25;;;;;8.99;53.62;102374.25;5065523;28;11398;-77
2021/03/02 09:34:03;;;;;;;;;16.25;15.75;;;;;8.96;48.12;102376.75;5065686;28;11406;-78
2021/03/02 09:36:32;;;;;;;;;18.00;18.00;;;;;9.16;50.16;102360.13;5082136;28;11456;-78
2021/03/02 09:39:00;;;;;;;;;18.00;18.00;;;;;9.03;48.07;102358.78;5082199;28;11423;-77
2021/03/02 09:41:41;;;;;;;;;21.50;21.00;;;;;9.16;47.55;102347.16;5082958;28;11421;-79
2021/03/02 09:44:19;;;;;;;;;18.00;18.00;;;;;9.09;47.32;102354.09;5083885;28;11398;-77
2021/03/02 09:46:49;;;;;;;;;22.75;21.25;;;;;9.36;49.23;102351.81;5083028;28;11437;-77
2021/03/02 09:49:33;;;;;;;;;13.75;13.00;;;;;9.33;49.42;102344.06;5083541;28;11487;-78
2021/03/02 09:52:01;;;;;;;;;20.25;20.25;;;;;9.60;50.16;102338.16;5082378;28;11414;-76
2021/03/02 09:54:28;;;;;;;;;13.00;13.00;;;;;9.66;53.49;102330.63;5082266;28;11409;-78
2021/03/02 09:57:01;;;;;;;;;13.00;13.00;;;;;9.06;48.92;102330.66;5083650;28;12170;-77
2021/03/02 09:59:30;;;;;;;;;8.75;8.75;;;;;8.54;49.37;102336.53;5083550;28;12238;-77
2021/03/02 10:02:01;;;;;;;;;8.25;8.25;;;;;8.30;52.49;102319.69;5065751;28;11465;-78
2021/03/02 10:04:29;;;;;;;;;10.00;10.00;;;;;8.37;52.82;102331.31;5083371;28;11431;-77
2021/03/02 10:07:10;;;;;;;;;10.00;10.00;;;;;7.68;52.75;102321.56;5081576;28;11394;-78
2021/03/02 10:09:46;;;;;;;;;12.50;12.50;;;;;8.24;54.61;102318.03;5081781;28;11391;-78
2021/03/02 10:12:14;;;;;;;;;11.50;11.50;;;;;8.32;52.14;102326.59;5080914;28;11571;-78
2021/03/02 10:14:44;;;;;;;;;14.00;14.00;;;;;8.57;50.98;102320.25;5083481;28;11408;-77
2021/03/02 10:17:11;;;;;;;;;19.50;19.25;;;;;8.70;53.83;102307.00;5087642;28;11412;-77
2021/03/02 10:20:05;;;;;;;;;15.00;15.00;;;;;8.62;50.24;102298.19;5086844;28;11474;-77
2021/03/02 10:22:32;;;;;;;;;14.75;14.75;;;;;8.36;51.26;102296.59;5086751;28;11397;-78
2021/03/02 10:25:02;;;;;;;;;18.25;11.75;;;;;7.89;51.74;102297.63;5086908;28;11430;-78
2021/03/02 10:27:29;;;;;;;;;5.50;5.50;;;;;8.17;58.05;102289.94;5086722;28;11417;-77
2021/03/02 10:29:56;;;;;;;;;10.00;10.00;;;;;8.20;53.69;102287.44;5084046;28;11366;-77
2021/03/02 10:32:23;;;;;;;;;8.50;8.50;;;;;8.40;57.74;102285.81;5085888;28;11419;-77
2021/03/02 10:34:50;;;;;;;;;7.00;7.00;;;;;7.95;51.40;102284.69;5085077;28;11440;-77
2021/03/02 10:37:18;;;;;;;;;7.75;7.75;;;;;7.84;53.74;102285.78;5084600;28;11347;-77
2021/03/02 10:39:45;;;;;;;;;8.00;8.00;;;;;8.14;57.29;102282.22;5081766;28;11376;-77
2021/03/02 10:42:21;;;;;;;;;6.00;6.00;;;;;7.40;52.60;102280.72;5086327;28;11404;-77
2021/03/02 10:44:48;;;;;;;;;7.00;7.00;;;;;7.59;53.32;102286.53;5086273;28;12082;-77
2021/03/02 10:47:15;;;;;;;;;10.50;10.50;;;;;7.83;52.27;102275.88;5068953;28;11376;-77
2021/03/02 10:49:42;;;;;;;;;11.50;11.50;;;;;7.98;52.13;102273.13;5084313;28;11403;-77
2021/03/02 10:52:22;;;;;;;;;7.00;7.00;;;;;8.00;51.94;102268.97;5084641;28;12275;-80
2021/03/02 10:54:49;;;;;;;;;10.00;10.00;;;;;8.02;51.19;102255.75;5067164;28;11352;-79
2021/03/02 10:57:17;;;;;;;;;7.75;7.75;;;;;7.85;51.78;102263.47;5085646;28;11435;-77
2021/03/02 10:59:45;;;;;;;;;13.25;13.25;;;;;7.88;52.26;102248.31;5083320;28;11385;-76
2021/03/02 11:02:21;;;;;;;;;16.00;15.00;;;;;7.86;53.29;102254.09;5083314;28;11488;-77
2021/03/02 11:04:48;;;;;;;;;19.25;19.25;;;;;7.96;52.00;102253.25;5084169;28;11396;-78
2021/03/02 11:07:18;;;;;;;;;18.75;18.75;;;;;7.87;51.68;102247.47;5083905;28;11437;-77
2021/03/02 11:09:44;;;;;;;;;8.00;8.00;;;;;7.56;52.25;102229.28;5084824;28;11475;-78
2021/03/02 11:12:20;;;;;;;;;10.00;10.00;;;;;7.71;52.41;102237.56;5084569;28;11384;-78
2021/03/02 11:14:47;;;;;;;;;11.75;10.50;;;;;7.71;52.45;102224.59;5084548;28;12216;-77
2021/03/02 11:17:36;;;;;;;;;5.50;5.50;;;;;7.27;53.70;102220.69;5090031;28;11380;-76
2021/03/02 11:20:09;;;;;;;;;16.00;16.00;;;;;7.35;54.16;102228.41;5070236;28;11419;-77
2021/03/02 11:22:42;;;;;;;;;19.00;19.00;;;;;7.33;53.86;102220.41;5088103;28;11475;-76
2021/03/02 11:25:33;;;;;;;;;18.25;15.50;;;;;7.32;53.89;102215.19;5090847;28;11704;-76
2021/03/02 11:28:15;;;;;;;;;18.00;18.00;;;;;7.40;54.18;102206.41;5086254;28;12320;-77
2021/03/02 11:30:51;;;;;;;;;17.00;17.00;;;;;7.38;54.48;102214.13;5062872;28;12317;-78
2021/03/02 11:33:21;;;;;;;;;17.00;17.00;;;;;7.47;53.69;102198.72;5082090;28;11452;-79
2021/03/02 11:35:48;;;;;;;;;13.00;13.00;;;;;7.65;53.61;102192.66;5084933;28;11469;-76
2021/03/02 11:38:16;;;;;;;;;15.00;14.00;;;;;7.39;53.80;102183.56;5083276;28;11530;-77
2021/03/02 11:40:52;;;;;;;;;16.00;15.00;;;;;7.35;54.68;102178.84;5086172;28;11457;-78
2021/03/02 11:43:21;;;;;;;;;14.25;14.25;;;;;7.46;54.74;102175.88;5083570;28;12302;-78
2021/03/02 11:45:48;;;;;;;;;14.25;14.25;;;;;7.43;54.95;102165.38;5083679;28;11464;-77
2021/03/02 11:48:44;;;;;;;;;23.00;21.25;;;;;7.11;54.77;102156.53;5069645;28;11481;-77
2021/03/02 11:51:22;;;;;;;;;10.00;10.00;;;;;7.09;55.01;102154.06;5082467;28;11471;-76
2021/03/02 11:53:51;;;;;;;;;15.50;15.50;;;;;7.45;54.09;102156.88;5086483;28;11456;-76
2021/03/02 11:56:22;;;;;;;;;16.00;16.00;;;;;7.28;55.03;102148.03;5084034;28;11436;-78
2021/03/02 11:58:49;;;;;;;;;11.00;11.00;;;;;7.50;53.80;102141.16;5084001;28;11515;-77
2021/03/02 12:01:16;;;;;;;;;11.75;11.50;;;;;7.37;54.49;102127.13;5086202;28;11404;-77
2021/03/02 12:03:43;;;;;;;;;25.50;23.25;;;;;7.35;55.49;102130.13;5074409;28;11451;-77
2021/03/02 12:06:19;;;;;;;;;21.75;19.25;;;;;7.63;54.39;102128.78;5095239;28;11472;-77
2021/03/02 12:08:50;;;;;;;;;13.50;12.50;;;;;7.55;54.54;102115.56;5085491;28;11485;-77
2021/03/02 12:11:18;;;;;;;;;20.25;16.75;;;;;7.63;54.62;102105.94;5081443;28;11435;-80
2021/03/02 12:13:46;;;;;;;;;16.25;15.25;;;;;7.48;54.32;102106.75;5084684;28;11482;-76
2021/03/02 12:16:16;;;;;;;;;15.00;15.00;;;;;7.60;54.59;102109.25;5085870;28;11461;-77
2021/03/02 12:18:48;;;;;;;;;13.00;13.00;;;;;7.77;54.15;102098.75;5081890;28;11550;-78
2021/03/02 12:21:27;;;;;;;;;12.00;12.00;;;;;7.76;54.02;102083.34;5066326;28;11491;-78
2021/03/02 12:23:57;;;;;;;;;15.00;14.25;;;;;7.86;53.81;102090.75;5066023;28;11559;-78
2021/03/02 12:26:54;;;;;;;;;13.50;9.50;;;;;7.20;56.14;102084.16;5074130;28;11535;-76
2021/03/02 12:29:46;;;;;;;;;10.00;10.00;;;;;7.39;55.14;102080.88;5084051;28;12251;-77
2021/03/02 12:32:15;;;;;;;;;10.75;10.75;;;;;7.57;55.30;102083.06;5089681;28;11468;-77
2021/03/02 12:34:57;;;;;;;;;14.00;14.00;;;;;7.59;55.79;102078.13;5083786;28;11473;-77
2021/03/02 12:37:26;;;;;;;;;15.00;15.00;;;;;7.81;54.72;102066.78;5082046;28;11525;-77
2021/03/02 12:39:53;;;;;;;;;11.50;10.75;;;;;7.71;55.36;102061.31;5064313;28;11529;-77
2021/03/02 12:42:49;;;;;;;;;13.75;13.00;;;;;7.68;55.56;102061.88;5087359;28;11373;-77